Time;durP1;ratioP1;P1;durP2;ratioP2;P2;SDS_P1;SDS_P2;PMS_P1;PMS_P2;Temp;Humidity;BMP_temperature;BMP_pressure;BME280_temperature;BME280_humidity;BME280_pressure;Samples;Min_cycle;Max_cycle;Signal;HPM_P1;HPM_P2
2023/12/07 00:04:48;;;;;;;;;17.00;15.00;;;;;22.88;29.61;101369.91;245386;1177;74554;-76
2023/12/07 00:09:52;;;;;;;;;18.75;16.75;;;;;22.86;29.65;101364.85;245414;1182;72621;-76
2023/12/07 00:14:57;;;;;;;;;17.00;17.00;;;;;22.85;29.50;101367.83;245213;1183;73465;-76
2023/12/07 00:20:04;;;;;;;;;15.25;15.25;;;;;22.86;29.64;101368.88;245332;1184;73508;-76
2023/12/07 00:25:08;;;;;;;;;17.75;17.75;;;;;22.86;29.54;101365.45;245389;1184;73417;-76
2023/12/07 00:30:13;;;;;;;;;19.00;17.00;;;;;22.83;29.40;101363.92;245223;1183;72310;-76
2023/12/07 00:35:17;;;;;;;;;17.67;17.00;;;;;22.84;29.72;101364.05;245382;1183;72505;-76
2023/12/07 00:40:22;;;;;;;;;16.75;15.00;;;;;22.84;29.57;101363.66;245258;1178;72984;-76
2023/12/07 00:45:28;;;;;;;;;19.50;17.50;;;;;22.83;29.59;101357.04;245424;1183;74045;-76
2023/12/07 00:50:31;;;;;;;;;16.25;15.25;;;;;22.81;29.41;101355.12;245399;1182;72986;-76
2023/12/07 00:55:35;;;;;;;;;16.00;16.00;;;;;22.81;29.55;101345.52;245403;1183;73838;-76
2023/12/07 01:00:40;;;;;;;;;18.00;16.75;;;;;22.81;29.37;101337.54;245362;1184;73798;-76
2023/12/07 01:05:44;;;;;;;;;16.67;16.67;;;;;22.79;29.55;101330.89;245196;1180;72674;-76
2023/12/07 01:10:48;;;;;;;;;18.00;18.00;;;;;22.79;29.67;101331.31;245330;1182;72869;-76
2023/12/07 01:15:51;;;;;;;;;19.00;16.67;;;;;22.78;29.32;101322.42;245372;1180;73143;-76
2023/12/07 01:20:57;;;;;;;;;15.25;15.25;;;;;22.77;29.37;101311.48;245416;1183;72794;-76
2023/12/07 01:26:02;;;;;;;;;17.00;17.00;;;;;22.77;29.39;101310.00;245414;1178;73672;-76
2023/12/07 01:31:06;;;;;;;;;14.50;14.50;;;;;22.77;29.20;101306.27;245390;1182;73143;-76
2023/12/07 01:36:11;;;;;;;;;16.25;16.25;;;;;22.77;29.29;101296.83;245248;1180;73611;-76
2023/12/07 01:41:15;;;;;;;;;18.75;18.75;;;;;22.76;29.40;101292.88;245415;1182;73425;-76
2023/12/07 01:46:20;;;;;;;;;18.25;17.00;;;;;22.76;29.31;101286.59;245407;1182;73967;-76
2023/12/07 01:51:24;;;;;;;;;20.33;20.00;;;;;22.75;29.56;101284.33;245341;1182;73670;-76
2023/12/07 01:56:30;;;;;;;;;17.00;16.50;;;;;22.75;29.22;101284.19;245196;1184;72976;-76
2023/12/07 02:01:33;;;;;;;;;19.33;18.67;;;;;22.74;29.31;101278.48;245364;1179;74140;-76
2023/12/07 02:06:38;;;;;;;;;16.25;16.25;;;;;22.73;29.17;101277.36;245320;1183;73550;-76
2023/12/07 02:11:42;;;;;;;;;15.50;15.50;;;;;22.71;29.26;101277.65;245330;1182;73242;-76
2023/12/07 02:16:50;;;;;;;;;16.50;16.50;;;;;22.71;29.16;101282.95;245252;1186;72164;-76
2023/12/07 02:22:09;;;;;;;;;19.00;19.00;;;;;22.70;28.99;101283.05;245266;1182;73466;-76
2023/12/07 02:27:13;;;;;;;;;19.25;16.25;;;;;22.71;29.16;101287.98;245393;1179;73555;-77
2023/12/07 02:32:19;;;;;;;;;16.00;16.00;;;;;22.71;29.17;101286.88;245394;1183;72971;-76
2023/12/07 02:37:28;;;;;;;;;15.25;15.25;;;;;22.72;29.03;101286.96;245410;1183;73112;-76
2023/12/07 02:42:32;;;;;;;;;14.50;14.50;;;;;22.72;29.05;101286.55;245211;1180;72423;-76
2023/12/07 02:47:37;;;;;;;;;16.25;16.00;;;;;22.72;29.18;101283.39;245259;1184;73656;-76
2023/12/07 02:52:41;;;;;;;;;15.50;15.50;;;;;22.71;29.30;101284.52;245430;1183;73484;-76
2023/12/07 02:57:46;;;;;;;;;15.75;15.75;;;;;22.70;29.28;101283.71;245260;1183;73038;-76
2023/12/07 03:02:51;;;;;;;;;17.75;16.75;;;;;22.70;29.17;101282.02;245208;1190;73698;-76
2023/12/07 03:07:57;;;;;;;;;19.50;17.50;;;;;22.69;28.96;101279.73;245289;1183;73179;-76
2023/12/07 03:13:01;;;;;;;;;16.00;15.00;;;;;22.69;28.99;101280.16;245437;1177;73621;-76
2023/12/07 03:18:05;;;;;;;;;16.25;16.25;;;;;22.68;29.24;101279.99;245392;1183;73461;-77
2023/12/07 03:23:09;;;;;;;;;15.50;14.50;;;;;22.68;29.16;101286.24;245387;1180;73480;-76
2023/12/07 03:28:14;;;;;;;;;18.50;17.00;;;;;22.68;29.06;101287.00;245409;1182;73049;-76
2023/12/07 03:33:19;;;;;;;;;16.25;16.25;;;;;22.65;28.98;101291.73;245383;1182;74245;-76
2023/12/07 03:38:25;;;;;;;;;18.00;18.00;;;;;22.65;29.01;101290.39;245333;1182;74258;-76
2023/12/07 03:43:29;;;;;;;;;17.75;17.75;;;;;22.65;29.17;101296.59;245380;1179;74116;-76
2023/12/07 03:48:34;;;;;;;;;15.50;15.50;;;;;22.65;29.13;101296.64;245377;1177;72535;-76
2023/12/07 03:53:38;;;;;;;;;17.75;16.00;;;;;22.64;29.08;101294.75;245403;1177;73178;-76
2023/12/07 03:58:43;;;;;;;;;16.75;16.75;;;;;22.62;29.21;101299.00;245386;1183;72853;-76
2023/12/07 04:03:50;;;;;;;;;17.75;17.75;;;;;22.58;28.80;101303.13;245364;1182;73767;-75
2023/12/07 04:08:56;;;;;;;;;18.50;18.50;;;;;22.47;27.80;101304.32;245390;1184;74251;-75
2023/12/07 04:14:02;;;;;;;;;23.25;20.75;;;;;22.42;27.68;101301.91;245363;1182;73527;-75
2023/12/07 04:19:05;;;;;;;;;20.00;20.00;;;;;22.44;27.18;101306.20;245400;1183;73031;-75
2023/12/07 04:24:09;;;;;;;;;21.50;20.50;;;;;22.51;26.28;101304.36;245411;1182;73231;-75
2023/12/07 04:29:12;;;;;;;;;21.50;19.00;;;;;22.62;25.72;101303.55;245279;1183;72735;-75
2023/12/07 04:34:17;;;;;;;;;19.00;19.00;;;;;22.78;25.18;101298.71;245411;1183;73400;-75
2023/12/07 04:39:22;;;;;;;;;21.75;20.75;;;;;22.95;24.90;101301.23;245402;1182;72564;-76
2023/12/07 04:44:26;;;;;;;;;23.00;23.00;;;;;23.10;24.67;101295.41;245206;1183;73223;-75
2023/12/07 04:49:30;;;;;;;;;19.00;19.00;;;;;23.20;24.22;101295.66;245362;1177;73159;-76
2023/12/07 04:54:33;;;;;;;;;21.50;21.50;;;;;23.24;23.74;101297.38;245307;1183;74399;-75
2023/12/07 04:59:37;;;;;;;;;26.50;25.75;;;;;23.28;23.50;101304.64;245371;1179;71822;-75
2023/12/07 05:04:44;;;;;;;;;22.67;20.33;;;;;23.32;23.51;101302.91;245433;1177;72943;-75
2023/12/07 05:09:50;;;;;;;;;19.00;19.00;;;;;23.38;22.95;101306.85;245443;1183;73275;-75
2023/12/07 05:14:54;;;;;;;;;21.00;21.00;;;;;23.42;22.89;101299.33;245434;1182;72859;-75
2023/12/07 05:19:59;;;;;;;;;23.67;23.67;;;;;23.43;22.46;101303.02;245268;1183;73713;-75
2023/12/07 05:25:04;;;;;;;;;24.50;24.50;;;;;23.43;22.44;101306.09;245358;1183;73756;-75
2023/12/07 05:30:10;;;;;;;;;21.75;21.50;;;;;23.47;22.23;101301.97;245355;1177;73611;-75
2023/12/07 05:35:14;;;;;;;;;22.00;22.00;;;;;23.49;22.17;101310.58;245257;1181;73122;-75
2023/12/07 05:40:20;;;;;;;;;17.75;17.75;;;;;23.47;22.27;101321.34;245278;1177;72862;-76
2023/12/07 05:45:26;;;;;;;;;21.25;21.25;;;;;23.49;23.86;101328.14;245048;1178;72633;-76
2023/12/07 05:50:31;;;;;;;;;21.00;19.75;;;;;23.60;25.27;101325.98;245195;1183;74265;-76
2023/12/07 05:55:38;;;;;;;;;24.00;22.00;;;;;23.68;26.15;101331.41;244209;1183;74046;-75
2023/12/07 06:00:46;;;;;;;;;28.50;25.75;;;;;23.77;27.80;101337.87;244030;1177;73457;-79
2023/12/07 06:05:53;;;;;;;;;22.25;21.00;;;;;23.90;29.22;101344.55;244146;1180;72499;-74
2023/12/07 06:10:57;;;;;;;;;21.00;20.50;;;;;24.00;28.63;101347.27;244135;1177;73443;-73
2023/12/07 06:16:02;;;;;;;;;20.75;20.25;;;;;24.24;28.97;101346.77;244221;1177;73791;-76
2023/12/07 06:21:07;;;;;;;;;22.00;19.00;;;;;24.49;28.65;101340.77;244206;1177;72918;-75
2023/12/07 06:26:13;;;;;;;;;18.67;18.00;;;;;24.72;28.47;101338.42;244207;1180;72966;-73
2023/12/07 06:31:21;;;;;;;;;19.00;17.50;;;;;24.91;28.36;101340.70;244261;1179;72963;-73
2023/12/07 06:36:26;;;;;;;;;20.50;20.25;;;;;25.07;28.19;101347.71;244241;1180;74369;-72
2023/12/07 06:41:31;;;;;;;;;22.25;21.00;;;;;25.20;27.57;101350.91;244327;1182;73843;-75
2023/12/07 06:46:36;;;;;;;;;22.25;19.25;;;;;25.28;27.51;101346.14;244338;1177;74230;-74
2023/12/07 06:51:41;;;;;;;;;19.67;19.67;;;;;25.39;27.46;101341.19;244395;1179;72985;-72
2023/12/07 06:56:46;;;;;;;;;20.00;20.00;;;;;25.50;27.22;101343.73;244342;1179;73487;-72
2023/12/07 07:01:56;;;;;;;;;21.75;21.75;;;;;25.47;26.13;101346.71;244220;1182;75043;-73
2023/12/07 07:07:06;;;;;;;;;25.75;22.25;;;;;24.80;23.39;101347.38;244171;1179;72998;-74
2023/12/07 07:12:10;;;;;;;;;23.25;23.25;;;;;24.39;24.08;101348.10;244334;1177;73416;-73
2023/12/07 07:17:17;;;;;;;;;22.00;22.00;;;;;24.33;24.04;101352.42;244258;1180;73272;-71
2023/12/07 07:22:21;;;;;;;;;24.00;23.00;;;;;24.31;23.79;101351.77;244194;1177;73770;-71
2023/12/07 07:27:25;;;;;;;;;25.00;23.33;;;;;24.29;23.72;101351.87;244203;1179;73558;-74
2023/12/07 07:32:30;;;;;;;;;20.25;20.25;;;;;24.29;23.75;101349.89;244221;1177;74415;-74
2023/12/07 07:37:35;;;;;;;;;22.00;22.00;;;;;24.31;23.35;101352.88;244351;1183;73171;-72
2023/12/07 07:42:42;;;;;;;;;22.00;22.00;;;;;24.31;23.10;101358.84;244313;1177;73649;-73
2023/12/07 07:47:46;;;;;;;;;23.25;22.50;;;;;24.32;22.91;101358.48;244386;1177;73488;-73
2023/12/07 07:52:51;;;;;;;;;25.00;21.00;;;;;24.34;22.80;101369.05;244295;1177;73089;-72
2023/12/07 07:57:55;;;;;;;;;20.25;20.25;;;;;24.26;26.19;101375.05;244316;1179;74061;-77
2023/12/07 08:03:00;;;;;;;;;25.33;25.33;;;;;24.43;30.15;101377.98;244386;1182;73371;-74
2023/12/07 08:08:04;;;;;;;;;22.00;19.25;;;;;24.83;32.49;101380.98;244309;1183;73764;-75
2023/12/07 08:13:08;;;;;;;;;24.25;23.75;;;;;25.27;33.03;101383.41;244327;1182;73887;-75
2023/12/07 08:18:14;;;;;;;;;20.50;20.00;;;;;25.64;33.56;101382.55;244317;1183;73101;-75
2023/12/07 08:23:19;;;;;;;;;27.67;22.00;;;;;25.91;33.66;101386.90;244236;1179;73648;-76
2023/12/07 08:28:23;;;;;;;;;23.75;22.50;;;;;26.11;33.81;101390.11;244294;1182;72846;-74
2023/12/07 08:33:27;;;;;;;;;21.33;21.33;;;;;26.29;33.92;101387.63;244345;1182;73234;-76
2023/12/07 08:38:32;;;;;;;;;20.75;19.50;;;;;26.44;33.96;101383.81;244277;1183;72870;-75
2023/12/07 08:43:36;;;;;;;;;22.00;20.50;;;;;26.57;34.14;101378.64;244416;1177;74254;-74
2023/12/07 08:48:40;;;;;;;;;21.00;21.00;;;;;26.67;34.10;101371.80;244328;1182;72908;-76
2023/12/07 08:53:46;;;;;;;;;19.00;19.00;;;;;26.76;34.21;101371.33;244289;1182;74020;-75
2023/12/07 08:58:55;;;;;;;;;26.67;22.00;;;;;26.83;33.63;101370.64;244279;1179;73355;-74
2023/12/07 09:04:00;;;;;;;;;19.75;19.00;;;;;26.72;33.19;101362.36;244396;1179;73762;-75
2023/12/07 09:09:04;;;;;;;;;22.67;18.67;;;;;26.77;34.09;101356.45;244461;1182;73060;-75
2023/12/07 09:14:08;;;;;;;;;21.50;20.50;;;;;26.88;34.42;101355.39;244371;1177;73469;-76
2023/12/07 09:19:13;;;;;;;;;22.25;21.50;;;;;26.99;34.72;101355.62;244345;1177;73266;-75
2023/12/07 09:24:19;;;;;;;;;26.25;23.50;;;;;27.07;34.56;101348.59;244269;1177;73028;-74
2023/12/07 09:29:23;;;;;;;;;24.00;19.00;;;;;27.15;35.17;101342.27;244374;1177;73728;-75
2023/12/07 09:34:28;;;;;;;;;22.25;17.75;;;;;27.24;35.34;101343.37;244426;1179;73877;-74
2023/12/07 09:39:33;;;;;;;;;19.00;16.50;;;;;27.33;35.52;101342.34;244185;1177;73996;-72
2023/12/07 09:44:41;;;;;;;;;22.75;20.50;;;;;27.41;35.92;101337.04;244408;1182;73367;-75
2023/12/07 09:49:46;;;;;;;;;20.33;19.00;;;;;27.50;35.52;101333.06;244199;1177;73531;-76
2023/12/07 09:54:50;;;;;;;;;20.25;18.25;;;;;27.54;35.89;101323.78;244104;1183;73815;-74
2023/12/07 09:59:55;;;;;;;;;25.67;22.67;;;;;27.52;34.97;101321.13;243884;1179;73931;-73
2023/12/07 10:05:10;;;;;;;;;24.75;22.50;;;;;27.26;33.32;101317.40;244249;1182;72958;-72
2023/12/07 10:10:15;;;;;;;;;29.50;25.00;;;;;26.95;31.97;101315.48;244276;1183;73220;-72
2023/12/07 10:15:20;;;;;;;;;29.75;27.25;;;;;26.59;29.47;101319.44;244225;1180;74368;-72
2023/12/07 10:20:26;;;;;;;;;27.50;27.25;;;;;26.26;27.82;101315.81;244197;1177;73751;-72
2023/12/07 10:25:41;;;;;;;;;27.25;27.25;;;;;26.04;27.00;101317.48;244210;1177;72650;-74
2023/12/07 10:30:45;;;;;;;;;24.75;23.75;;;;;25.96;27.16;101313.17;244356;1177;72693;-72
2023/12/07 10:35:50;;;;;;;;;27.75;26.50;;;;;25.92;26.99;101306.61;244236;1180;73581;-72
2023/12/07 10:41:05;;;;;;;;;31.75;29.25;;;;;25.90;26.98;101311.94;244198;1183;74579;-72
2023/12/07 10:46:09;;;;;;;;;26.00;25.50;;;;;25.85;26.94;101311.38;244101;1183;73792;-72
2023/12/07 10:51:36;;;;;;;;;28.50;27.50;;;;;25.83;26.66;101311.02;244174;1180;72128;-74
2023/12/07 10:56:46;;;;;;;;;22.00;22.00;;;;;25.80;26.46;101306.17;244125;1183;74246;-74
2023/12/07 11:01:51;;;;;;;;;25.33;24.33;;;;;25.80;26.58;101304.80;244206;1177;72930;-74
2023/12/07 11:06:57;;;;;;;;;32.00;26.50;;;;;25.78;26.55;101301.98;244308;1183;73102;-74
2023/12/07 11:12:29;;;;;;;;;27.25;24.00;;;;;25.79;26.54;101305.36;244271;1187;74194;-74
2023/12/07 11:17:53;;;;;;;;;23.00;23.00;;;;;25.78;26.51;101305.77;244179;1180;73531;-74
2023/12/07 11:22:57;;;;;;;;;22.25;21.00;;;;;25.75;26.39;101296.92;244155;1183;72862;-74
2023/12/07 11:28:06;;;;;;;;;19.50;19.50;;;;;25.72;26.51;101295.02;244245;1180;73626;-71
2023/12/07 11:33:11;;;;;;;;;22.25;20.75;;;;;25.71;26.61;101294.46;244105;1180;73519;-75
2023/12/07 11:38:19;;;;;;;;;23.75;22.75;;;;;25.66;26.63;101295.19;244019;1177;72954;-74
2023/12/07 11:43:43;;;;;;;;;21.50;21.00;;;;;25.62;26.60;101293.39;244068;1184;73316;-74
2023/12/07 11:48:48;;;;;;;;;21.25;21.25;;;;;25.57;26.66;101294.55;243944;1183;74348;-74
2023/12/07 11:54:00;;;;;;;;;20.67;20.67;;;;;25.52;26.74;101298.77;243976;1183;73214;-75
2023/12/07 11:59:04;;;;;;;;;20.33;19.00;;;;;25.51;26.70;101294.89;244212;1184;74398;-75
2023/12/07 12:04:10;;;;;;;;;20.50;20.25;;;;;25.51;26.63;101297.34;243978;1183;74173;-75
2023/12/07 12:09:17;;;;;;;;;19.75;18.50;;;;;25.46;26.60;101299.91;243927;1183;72976;-74
2023/12/07 12:14:32;;;;;;;;;22.67;20.67;;;;;25.44;26.65;101310.96;245049;1182;72715;-75
2023/12/07 12:19:37;;;;;;;;;21.00;21.00;;;;;25.49;26.75;101311.60;245177;1179;73051;-75
2023/12/07 12:24:43;;;;;;;;;21.00;20.00;;;;;25.48;26.65;101311.70;245153;1183;73668;-74
2023/12/07 12:29:50;;;;;;;;;26.33;24.33;;;;;25.42;26.26;101313.48;245189;1177;73308;-74
2023/12/07 12:34:54;;;;;;;;;24.00;23.75;;;;;25.28;25.56;101309.14;245177;1183;72076;-74
2023/12/07 12:40:00;;;;;;;;;27.33;22.67;;;;;25.20;25.55;101308.04;245132;1183;73272;-74
2023/12/07 12:45:13;;;;;;;;;25.67;24.00;;;;;25.16;25.85;101310.16;245062;1177;74848;-75
2023/12/07 12:50:38;;;;;;;;;21.00;19.00;;;;;25.11;25.94;101312.83;245140;1182;74168;-75
2023/12/07 12:55:43;;;;;;;;;20.50;20.00;;;;;25.03;26.15;101315.67;245183;1177;72811;-74
2023/12/07 13:00:47;;;;;;;;;22.75;21.00;;;;;24.99;26.41;101313.52;245198;1183;73120;-74
2023/12/07 13:05:51;;;;;;;;;21.25;21.25;;;;;24.95;26.48;101312.71;245349;1183;72951;-75
2023/12/07 13:10:55;;;;;;;;;22.00;20.75;;;;;24.89;26.41;101318.70;245426;1182;73071;-74
2023/12/07 13:15:59;;;;;;;;;20.75;18.50;;;;;24.83;26.50;101320.88;245410;1183;72867;-74
2023/12/07 13:21:03;;;;;;;;;23.00;21.00;;;;;24.76;26.69;101324.98;245376;1184;73997;-74
2023/12/07 13:26:07;;;;;;;;;20.50;19.25;;;;;24.68;26.93;101320.91;245422;1183;72752;-74
2023/12/07 13:31:11;;;;;;;;;22.33;22.33;;;;;24.62;26.81;101322.30;245375;1182;73767;-74
2023/12/07 13:36:17;;;;;;;;;20.33;18.67;;;;;24.57;26.90;101322.94;245343;1180;73278;-74
2023/12/07 13:41:23;;;;;;;;;26.50;22.75;;;;;24.51;26.96;101330.21;245352;1183;73317;-75
2023/12/07 13:46:27;;;;;;;;;17.75;17.25;;;;;24.46;27.02;101336.22;245325;1182;73286;-75
2023/12/07 13:51:31;;;;;;;;;20.25;20.25;;;;;24.40;26.99;101342.26;245434;1183;73123;-75
2023/12/07 13:56:35;;;;;;;;;18.75;18.25;;;;;24.34;27.03;101358.45;245419;1178;73969;-75
2023/12/07 14:01:40;;;;;;;;;22.67;21.67;;;;;24.29;26.99;101365.03;245392;1183;72740;-75
2023/12/07 14:06:43;;;;;;;;;26.75;24.50;;;;;24.22;27.09;101367.73;245384;1177;71931;-75
2023/12/07 14:11:47;;;;;;;;;20.25;20.00;;;;;24.19;27.07;101367.52;245352;1190;74205;-75
2023/12/07 14:16:52;;;;;;;;;20.50;19.00;;;;;24.14;27.09;101368.56;245401;1180;74239;-75
2023/12/07 14:21:59;;;;;;;;;19.50;19.50;;;;;24.08;27.04;101368.25;245416;1183;71776;-75
2023/12/07 14:27:05;;;;;;;;;22.75;20.25;;;;;24.04;26.96;101372.85;245392;1183;73267;-74
2023/12/07 14:32:10;;;;;;;;;20.50;20.50;;;;;24.00;27.09;101371.65;245352;1182;73208;-74
2023/12/07 14:37:14;;;;;;;;;16.33;16.33;;;;;23.98;27.06;101371.13;245395;1184;73421;-75
2023/12/07 14:42:18;;;;;;;;;17.75;17.75;;;;;23.96;27.24;101371.06;245443;1183;72885;-75
2023/12/07 14:47:22;;;;;;;;;19.25;19.00;;;;;23.92;27.27;101372.28;245374;1182;73129;-74
2023/12/07 14:52:27;;;;;;;;;19.00;17.50;;;;;23.88;27.20;101372.88;245307;1183;72921;-74
2023/12/07 14:57:31;;;;;;;;;19.33;18.33;;;;;23.86;27.25;101380.34;245339;1183;74366;-74
2023/12/07 15:02:35;;;;;;;;;21.25;20.25;;;;;23.85;27.25;101378.45;245351;1177;72923;-75
2023/12/07 15:07:39;;;;;;;;;19.50;17.75;;;;;23.84;27.36;101376.98;245323;1183;73670;-74
2023/12/07 15:12:43;;;;;;;;;21.50;20.25;;;;;23.83;27.42;101376.84;245349;1183;73859;-75
2023/12/07 15:17:48;;;;;;;;;19.00;18.25;;;;;23.81;27.43;101376.23;245339;1180;73811;-75
2023/12/07 15:22:52;;;;;;;;;18.50;18.50;;;;;23.80;27.56;101378.38;245348;1180;73365;-73
2023/12/07 15:27:56;;;;;;;;;16.00;16.00;;;;;23.77;27.59;101377.24;245397;1178;73304;-73
2023/12/07 15:33:00;;;;;;;;;20.25;19.25;;;;;23.72;27.68;101378.59;245339;1183;72762;-73
2023/12/07 15:38:04;;;;;;;;;24.50;23.00;;;;;23.68;27.56;101383.83;245310;1178;73104;-73
2023/12/07 15:43:08;;;;;;;;;18.25;18.00;;;;;23.66;27.67;101387.97;245323;1183;72831;-73
2023/12/07 15:48:12;;;;;;;;;23.00;20.25;;;;;23.65;27.73;101397.05;245390;1183;73612;-73
2023/12/07 15:53:17;;;;;;;;;22.00;20.75;;;;;23.64;27.67;101398.47;245324;1182;73827;-73
2023/12/07 15:58:22;;;;;;;;;17.00;16.25;;;;;23.63;27.74;101395.66;245349;1177;71853;-73
2023/12/07 16:03:28;;;;;;;;;20.25;19.25;;;;;23.61;27.63;101394.50;245308;1182;72842;-74
2023/12/07 16:08:34;;;;;;;;;20.50;20.00;;;;;23.59;27.64;101399.52;245358;1183;72522;-74
2023/12/07 16:13:38;;;;;;;;;19.00;19.00;;;;;23.59;27.70;101408.26;245272;1183;73233;-74
2023/12/07 16:18:42;;;;;;;;;20.75;19.75;;;;;23.58;27.99;101405.88;245343;1183;73131;-74
2023/12/07 16:23:46;;;;;;;;;17.75;17.75;;;;;23.57;27.79;101399.66;245365;1184;72870;-74
2023/12/07 16:28:50;;;;;;;;;16.00;16.00;;;;;23.55;27.96;101401.48;245386;1183;73367;-74
2023/12/07 16:33:54;;;;;;;;;21.00;19.50;;;;;23.54;27.92;101401.97;245367;1183;73001;-74
2023/12/07 16:39:03;;;;;;;;;18.25;18.25;;;;;23.53;27.93;101398.06;245389;1183;73008;-74
2023/12/07 16:44:07;;;;;;;;;18.00;16.75;;;;;23.53;28.10;101393.35;245373;1182;74673;-75
2023/12/07 16:49:12;;;;;;;;;18.00;16.25;;;;;23.52;28.02;101396.27;245393;1177;73642;-74
2023/12/07 16:54:16;;;;;;;;;18.67;18.33;;;;;23.52;28.20;101397.73;245367;1177;72405;-74
2023/12/07 16:59:20;;;;;;;;;20.00;17.50;;;;;23.51;28.29;101403.16;245413;1183;73915;-75
2023/12/07 17:04:25;;;;;;;;;22.50;22.50;;;;;23.49;28.03;101404.90;245384;1183;73556;-74
2023/12/07 17:09:29;;;;;;;;;21.25;17.25;;;;;23.46;28.06;101404.58;245423;1187;72633;-74
2023/12/07 17:14:33;;;;;;;;;20.75;20.75;;;;;23.47;28.18;101401.60;245368;1183;73781;-74
2023/12/07 17:19:37;;;;;;;;;19.25;18.75;;;;;23.47;28.26;101400.21;245442;1183;73272;-74
2023/12/07 17:24:53;;;;;;;;;20.25;20.25;;;;;23.46;28.21;101399.50;245411;1184;73716;-74
2023/12/07 17:29:56;;;;;;;;;23.50;21.25;;;;;23.43;28.20;101397.80;245430;1182;73473;-73
2023/12/07 17:35:02;;;;;;;;;17.50;17.50;;;;;23.41;28.11;101403.41;245427;1184;72869;-74
2023/12/07 17:40:06;;;;;;;;;19.00;19.00;;;;;23.39;28.09;101401.09;245439;1177;73131;-73
2023/12/07 17:45:10;;;;;;;;;21.00;21.00;;;;;23.38;28.35;101402.47;245435;1177;73679;-73
2023/12/07 17:50:14;;;;;;;;;20.25;20.25;;;;;23.37;28.17;101396.73;245410;1182;72780;-74
2023/12/07 17:55:18;;;;;;;;;19.25;18.25;;;;;23.35;28.16;101394.95;245372;1180;73813;-73
2023/12/07 18:00:23;;;;;;;;;18.00;18.00;;;;;23.35;28.07;101392.69;245375;1183;72801;-73
2023/12/07 18:05:27;;;;;;;;;20.75;20.50;;;;;23.36;28.30;101390.94;245378;1180;73919;-74
2023/12/07 18:10:31;;;;;;;;;19.25;18.50;;;;;23.37;28.30;101391.97;245421;1179;72905;-74
2023/12/07 18:15:35;;;;;;;;;23.00;21.00;;;;;23.36;28.25;101389.13;245380;1177;73625;-74
2023/12/07 18:20:41;;;;;;;;;17.25;17.25;;;;;23.35;28.32;101389.13;245335;1183;72950;-74
2023/12/07 18:25:46;;;;;;;;;19.67;17.33;;;;;23.32;28.22;101389.75;245356;1182;73550;-73
2023/12/07 18:30:50;;;;;;;;;20.33;17.67;;;;;23.30;28.19;101397.27;245371;1181;73101;-74
2023/12/07 18:35:53;;;;;;;;;17.25;16.75;;;;;23.30;28.17;101399.24;245327;1183;74058;-73
2023/12/07 18:40:58;;;;;;;;;17.50;17.50;;;;;23.29;28.16;101399.10;245362;1184;73099;-73
2023/12/07 18:46:06;;;;;;;;;18.75;18.75;;;;;23.28;27.99;101399.83;245330;1182;73125;-75
2023/12/07 18:51:11;;;;;;;;;20.00;18.75;;;;;23.27;28.11;101395.38;245383;1177;74020;-74
2023/12/07 18:56:16;;;;;;;;;16.00;16.00;;;;;23.26;28.09;101396.73;245408;1182;73323;-74
2023/12/07 19:01:29;;;;;;;;;16.00;16.00;;;;;23.26;28.23;101392.02;245368;1182;73558;-74
2023/12/07 19:06:33;;;;;;;;;18.00;18.00;;;;;23.25;28.18;101391.56;245392;1179;72882;-74
2023/12/07 19:11:37;;;;;;;;;17.00;17.00;;;;;23.25;28.11;101387.56;245335;1183;73589;-74
2023/12/07 19:16:42;;;;;;;;;20.75;19.00;;;;;23.22;28.10;101389.41;245352;1183;73761;-75
2023/12/07 19:21:47;;;;;;;;;18.00;18.00;;;;;23.22;28.23;101388.44;245404;1190;73194;-74
2023/12/07 19:26:51;;;;;;;;;17.75;17.50;;;;;23.21;28.11;101388.32;245336;1177;71876;-74
2023/12/07 19:31:56;;;;;;;;;18.00;18.00;;;;;23.20;28.04;101387.59;245406;1182;74185;-75
2023/12/07 19:37:00;;;;;;;;;21.50;21.50;;;;;23.18;28.17;101383.40;245398;1177;72839;-74
2023/12/07 19:42:05;;;;;;;;;21.00;20.25;;;;;23.17;27.90;101385.58;245378;1183;73358;-74
2023/12/07 19:47:09;;;;;;;;;19.50;18.25;;;;;23.16;28.10;101382.95;245352;1184;73425;-74
2023/12/07 19:52:13;;;;;;;;;20.00;19.50;;;;;23.16;28.08;101382.05;245395;1182;72762;-74
2023/12/07 19:57:17;;;;;;;;;20.00;19.25;;;;;23.15;27.84;101378.98;245427;1183;72951;-74
2023/12/07 20:02:22;;;;;;;;;19.50;18.50;;;;;23.14;27.78;101381.29;245416;1191;73425;-74
2023/12/07 20:07:26;;;;;;;;;18.00;17.25;;;;;23.14;27.91;101377.27;245377;1184;74229;-74
2023/12/07 20:12:30;;;;;;;;;23.00;21.75;;;;;23.12;27.90;101379.36;245429;1183;72892;-74
2023/12/07 20:17:34;;;;;;;;;19.25;19.25;;;;;23.11;27.92;101380.74;245451;1183;73256;-75
2023/12/07 20:22:39;;;;;;;;;22.25;18.75;;;;;23.12;28.01;101379.83;245402;1183;73248;-74
2023/12/07 20:27:43;;;;;;;;;18.33;18.33;;;;;23.14;27.86;101380.11;245404;1180;73427;-75
2023/12/07 20:32:50;;;;;;;;;22.50;20.00;;;;;23.13;28.05;101384.27;245382;1182;73295;-73
2023/12/07 20:37:58;;;;;;;;;22.67;20.67;;;;;23.13;28.02;101386.46;245354;1183;73516;-73
2023/12/07 20:43:02;;;;;;;;;19.00;18.00;;;;;23.14;27.88;101387.63;245353;1180;72721;-73
2023/12/07 20:48:06;;;;;;;;;20.75;20.75;;;;;23.12;28.20;101386.96;245391;1182;73909;-74
2023/12/07 20:53:10;;;;;;;;;18.50;16.50;;;;;23.12;28.12;101392.25;245393;1183;73280;-73
2023/12/07 20:58:16;;;;;;;;;21.25;19.50;;;;;23.10;27.99;101391.59;245434;1179;73804;-73
2023/12/07 21:03:20;;;;;;;;;18.75;18.75;;;;;23.09;27.82;101399.46;245370;1183;72969;-73
2023/12/07 21:08:25;;;;;;;;;22.33;22.33;;;;;23.06;27.81;101395.39;245331;1183;73584;-73
2023/12/07 21:13:29;;;;;;;;;16.25;16.25;;;;;23.06;27.84;101397.23;245388;1183;73190;-72
2023/12/07 21:18:36;;;;;;;;;18.25;18.25;;;;;23.05;27.86;101398.61;245375;1182;72260;-72
2023/12/07 21:23:39;;;;;;;;;25.00;20.00;;;;;23.03;27.68;101401.80;245369;1182;73896;-72
2023/12/07 21:28:43;;;;;;;;;18.00;16.00;;;;;23.02;27.78;101394.01;245384;1178;73576;-73
2023/12/07 21:33:48;;;;;;;;;19.00;18.50;;;;;23.01;27.75;101396.85;245388;1183;72961;-72
2023/12/07 21:38:52;;;;;;;;;18.25;16.75;;;;;23.01;27.85;101395.05;245361;1184;73142;-72
2023/12/07 21:43:56;;;;;;;;;18.75;18.75;;;;;23.01;27.82;101394.55;245369;1182;73631;-73
2023/12/07 21:49:00;;;;;;;;;20.25;18.75;;;;;22.99;27.74;101392.35;245383;1179;72550;-73
2023/12/07 21:54:05;;;;;;;;;18.25;17.25;;;;;22.99;27.86;101393.41;245397;1183;73060;-74
2023/12/07 21:59:09;;;;;;;;;19.00;19.00;;;;;22.98;27.65;101394.91;245415;1184;73719;-74
2023/12/07 22:04:12;;;;;;;;;20.75;20.75;;;;;22.98;27.64;101389.04;245350;1182;73191;-73
2023/12/07 22:09:16;;;;;;;;;18.00;18.00;;;;;22.98;27.74;101387.83;245335;1183;73416;-73
2023/12/07 22:14:24;;;;;;;;;22.75;20.75;;;;;22.96;27.63;101382.04;245329;1180;73341;-73
2023/12/07 22:19:27;;;;;;;;;22.75;20.25;;;;;22.95;27.65;101384.77;245358;1183;72917;-73
2023/12/07 22:24:31;;;;;;;;;20.33;17.00;;;;;22.94;27.60;101379.79;245353;1183;73136;-73
2023/12/07 22:29:35;;;;;;;;;18.00;18.00;;;;;22.94;27.65;101377.70;245366;1182;73898;-73
2023/12/07 22:34:40;;;;;;;;;19.00;19.00;;;;;22.94;27.51;101378.04;245405;1180;74101;-73
2023/12/07 22:39:44;;;;;;;;;20.50;18.00;;;;;22.93;27.46;101377.02;245406;1183;73162;-73
2023/12/07 22:44:48;;;;;;;;;17.00;17.00;;;;;22.94;27.70;101380.46;245421;1183;73351;-73
2023/12/07 22:49:51;;;;;;;;;15.25;15.25;;;;;22.94;27.65;101382.27;245357;1191;73412;-73
2023/12/07 22:54:55;;;;;;;;;16.33;16.33;;;;;22.94;27.79;101387.61;245388;1183;73364;-73